sensor_id;sensor_type;location;lat;lon;timestamp;noise_LAeq;noise_LA_min;noise_LA_max;noise_LA01;noise_LA95
73206;Laerm;61415;55.702;37.460;2023-03-03T00:00:28;66.18;61.25;70.99;;
73206;Laerm;61415;55.702;37.460;2023-03-03T00:00:59;60.53;56.66;65.67;;
73206;Laerm;61415;55.702;37.460;2023-03-03T00:01:30;61.77;56.90;68.04;;
73206;Laerm;61415;55.702;37.460;2023-03-03T00:02:02;61.37;57.98;64.97;;
73206;Laerm;61415;55.702;37.460;2023-03-03T00:02:33;63.19;59.56;74.25;;
73206;Laerm;61415;55.702;37.460;2023-03-03T00:03:05;60.84;56.61;72.28;;
73206;Laerm;61415;55.702;37.460;2023-03-03T00:03:36;65.31;55.65;74.65;;
73206;Laerm;61415;55.702;37.460;2023-03-03T00:04:08;60.11;55.89;66.24;;
73206;Laerm;61415;55.702;37.460;2023-03-03T00:04:39;60.94;56.39;73.49;;
73206;Laerm;61415;55.702;37.460;2023-03-03T00:05:10;62.02;57.76;66.64;;
73206;Laerm;61415;55.702;37.460;2023-03-03T00:05:44;61.47;56.94;64.75;;
73206;Laerm;61415;55.702;37.460;2023-03-03T00:06:15;61.75;55.97;67.59;;
73206;Laerm;61415;55.702;37.460;2023-03-03T00:06:46;64.03;58.20;68.12;;
73206;Laerm;61415;55.702;37.460;2023-03-03T00:07:17;62.09;57.09;66.34;;
73206;Laerm;61415;55.702;37.460;2023-03-03T00:07:52;63.93;57.30;70.85;;
73206;Laerm;61415;55.702;37.460;2023-03-03T00:08:23;63.94;57.09;71.39;;
73206;Laerm;61415;55.702;37.460;2023-03-03T00:08:54;67.07;58.54;72.04;;
73206;Laerm;61415;55.702;37.460;2023-03-03T00:09:25;66.33;58.54;71.23;;
73206;Laerm;61415;55.702;37.460;2023-03-03T00:09:56;63.24;59.99;66.98;;
73206;Laerm;61415;55.702;37.460;2023-03-03T00:10:27;60.33;55.10;66.08;;
73206;Laerm;61415;55.702;37.460;2023-03-03T00:10:57;62.65;58.51;66.62;;
73206;Laerm;61415;55.702;37.460;2023-03-03T00:11:30;63.31;60.19;66.30;;
73206;Laerm;61415;55.702;37.460;2023-03-03T00:12:01;60.40;57.50;65.21;;
73206;Laerm;61415;55.702;37.460;2023-03-03T00:12:46;65.71;58.29;72.38;;
73206;Laerm;61415;55.702;37.460;2023-03-03T00:13:18;62.25;55.28;67.49;;
73206;Laerm;61415;55.702;37.460;2023-03-03T00:13:53;63.00;57.25;67.97;;
73206;Laerm;61415;55.702;37.460;2023-03-03T00:14:28;62.77;56.37;68.45;;
73206;Laerm;61415;55.702;37.460;2023-03-03T00:14:59;63.67;58.86;67.01;;
73206;Laerm;61415;55.702;37.460;2023-03-03T00:15:30;63.74;59.34;74.30;;
73206;Laerm;61415;55.702;37.460;2023-03-03T00:16:09;61.46;57.05;73.28;;
73206;Laerm;61415;55.702;37.460;2023-03-03T00:16:42;63.35;59.67;68.96;;
73206;Laerm;61415;55.702;37.460;2023-03-03T00:17:20;62.73;59.61;66.33;;
73206;Laerm;61415;55.702;37.460;2023-03-03T00:17:51;64.01;60.00;70.87;;
73206;Laerm;61415;55.702;37.460;2023-03-03T00:18:27;62.85;59.33;66.27;;
73206;Laerm;61415;55.702;37.460;2023-03-03T00:19:00;62.57;56.09;69.73;;
73206;Laerm;61415;55.702;37.460;2023-03-03T00:19:30;62.58;55.57;67.46;;
73206;Laerm;61415;55.702;37.460;2023-03-03T00:20:25;61.60;56.23;65.57;;
73206;Laerm;61415;55.702;37.460;2023-03-03T00:20:58;62.74;57.64;67.22;;
73206;Laerm;61415;55.702;37.460;2023-03-03T00:21:31;65.29;59.46;72.38;;
73206;Laerm;61415;55.702;37.460;2023-03-03T00:22:06;61.15;57.60;65.75;;
73206;Laerm;61415;55.702;37.460;2023-03-03T00:22:41;63.09;58.40;69.60;;
73206;Laerm;61415;55.702;37.460;2023-03-03T00:23:44;61.12;57.33;64.87;;
73206;Laerm;61415;55.702;37.460;2023-03-03T00:24:21;58.67;54.71;62.53;;
73206;Laerm;61415;55.702;37.460;2023-03-03T00:24:53;60.94;56.90;65.03;;
73206;Laerm;61415;55.702;37.460;2023-03-03T00:25:55;65.84;60.59;69.87;;
73206;Laerm;61415;55.702;37.460;2023-03-03T00:26:38;66.05;61.22;70.94;;
73206;Laerm;61415;55.702;37.460;2023-03-03T00:27:17;63.81;59.98;68.21;;
73206;Laerm;61415;55.702;37.460;2023-03-03T00:27:49;63.65;57.19;68.18;;
73206;Laerm;61415;55.702;37.460;2023-03-03T00:28:54;61.52;55.30;65.31;;
73206;Laerm;61415;55.702;37.460;2023-03-03T00:29:30;59.13;54.49;66.41;;
73206;Laerm;61415;55.702;37.460;2023-03-03T00:30:05;62.67;58.36;66.57;;
73206;Laerm;61415;55.702;37.460;2023-03-03T00:30:46;62.46;57.40;67.01;;
73206;Laerm;61415;55.702;37.460;2023-03-03T00:31:28;59.01;56.17;63.36;;
73206;Laerm;61415;55.702;37.460;2023-03-03T00:32:21;59.64;55.30;66.79;;
73206;Laerm;61415;55.702;37.460;2023-03-03T00:32:50;59.62;54.64;65.67;;
73206;Laerm;61415;55.702;37.460;2023-03-03T00:34:02;65.40;59.16;70.72;;
73206;Laerm;61415;55.702;37.460;2023-03-03T00:34:44;65.18;59.12;70.13;;
73206;Laerm;61415;55.702;37.460;2023-03-03T00:35:49;61.02;56.24;66.40;;
73206;Laerm;61415;55.702;37.460;2023-03-03T00:37:01;63.38;59.42;68.24;;
73206;Laerm;61415;55.702;37.460;2023-03-03T00:37:32;64.99;59.22;71.31;;
73206;Laerm;61415;55.702;37.460;2023-03-03T00:38:13;63.09;59.48;67.99;;
73206;Laerm;61415;55.702;37.460;2023-03-03T00:38:46;64.51;57.96;74.71;;
73206;Laerm;61415;55.702;37.460;2023-03-03T00:40:19;62.92;58.88;66.47;;
73206;Laerm;61415;55.702;37.460;2023-03-03T00:40:48;62.62;56.87;68.74;;
73206;Laerm;61415;55.702;37.460;2023-03-03T00:41:23;61.64;57.98;66.46;;
73206;Laerm;61415;55.702;37.460;2023-03-03T00:41:54;63.03;59.39;66.29;;
73206;Laerm;61415;55.702;37.460;2023-03-03T00:42:25;63.48;58.23;68.77;;
73206;Laerm;61415;55.702;37.460;2023-03-03T00:42:57;61.39;55.37;65.83;;
73206;Laerm;61415;55.702;37.460;2023-03-03T00:43:33;59.32;55.90;62.94;;
73206;Laerm;61415;55.702;37.460;2023-03-03T00:44:58;65.39;59.52;72.73;;
73206;Laerm;61415;55.702;37.460;2023-03-03T00:45:31;61.30;56.36;65.80;;
73206;Laerm;61415;55.702;37.460;2023-03-03T00:46:07;64.35;55.96;69.55;;
73206;Laerm;61415;55.702;37.460;2023-03-03T00:46:38;65.48;59.29;70.19;;
73206;Laerm;61415;55.702;37.460;2023-03-03T00:47:45;65.26;58.38;71.47;;
73206;Laerm;61415;55.702;37.460;2023-03-03T00:48:23;67.75;61.02;72.59;;
73206;Laerm;61415;55.702;37.460;2023-03-03T00:48:54;61.07;57.75;65.93;;
73206;Laerm;61415;55.702;37.460;2023-03-03T00:49:25;63.90;58.58;68.48;;
73206;Laerm;61415;55.702;37.460;2023-03-03T00:50:36;62.50;57.45;67.57;;
73206;Laerm;61415;55.702;37.460;2023-03-03T00:51:31;66.41;59.35;72.01;;
73206;Laerm;61415;55.702;37.460;2023-03-03T00:52:00;61.55;56.88;66.52;;
73206;Laerm;61415;55.702;37.460;2023-03-03T00:52:45;64.07;60.52;66.76;;
73206;Laerm;61415;55.702;37.460;2023-03-03T00:53:21;65.29;57.50;72.85;;
73206;Laerm;61415;55.702;37.460;2023-03-03T00:53:53;63.67;59.19;69.68;;
73206;Laerm;61415;55.702;37.460;2023-03-03T00:54:24;63.56;58.29;70.08;;
73206;Laerm;61415;55.702;37.460;2023-03-03T00:54:54;61.91;57.33;65.67;;
73206;Laerm;61415;55.702;37.460;2023-03-03T00:55:25;64.83;60.31;68.62;;
73206;Laerm;61415;55.702;37.460;2023-03-03T00:55:56;63.20;57.29;68.42;;
73206;Laerm;61415;55.702;37.460;2023-03-03T00:56:27;63.11;58.20;67.21;;
73206;Laerm;61415;55.702;37.460;2023-03-03T00:56:58;62.97;59.65;67.00;;
73206;Laerm;61415;55.702;37.460;2023-03-03T00:57:29;64.57;60.40;67.97;;
73206;Laerm;61415;55.702;37.460;2023-03-03T00:58:00;62.67;59.35;66.36;;
73206;Laerm;61415;55.702;37.460;2023-03-03T00:58:31;66.14;61.57;70.56;;
73206;Laerm;61415;55.702;37.460;2023-03-03T00:59:01;63.02;57.01;70.20;;
73206;Laerm;61415;55.702;37.460;2023-03-03T00:59:32;60.60;57.49;64.39;;
73206;Laerm;61415;55.702;37.460;2023-03-03T01:00:03;60.16;56.75;64.23;;
73206;Laerm;61415;55.702;37.460;2023-03-03T01:00:34;61.27;55.36;66.94;;
73206;Laerm;61415;55.702;37.460;2023-03-03T01:01:05;63.00;58.32;68.21;;
73206;Laerm;61415;55.702;37.460;2023-03-03T01:01:36;61.35;57.33;66.31;;
73206;Laerm;61415;55.702;37.460;2023-03-03T01:02:07;64.59;57.84;70.33;;
73206;Laerm;61415;55.702;37.460;2023-03-03T01:02:38;64.01;58.13;68.99;;
73206;Laerm;61415;55.702;37.460;2023-03-03T01:03:12;61.57;56.84;67.62;;
73206;Laerm;61415;55.702;37.460;2023-03-03T01:03:44;62.61;57.28;68.06;;
73206;Laerm;61415;55.702;37.460;2023-03-03T01:04:14;61.13;57.81;66.94;;
73206;Laerm;61415;55.702;37.460;2023-03-03T01:04:49;61.64;58.23;65.02;;
73206;Laerm;61415;55.702;37.460;2023-03-03T01:05:28;64.37;56.98;68.71;;
73206;Laerm;61415;55.702;37.460;2023-03-03T01:05:59;61.35;58.16;65.09;;
73206;Laerm;61415;55.702;37.460;2023-03-03T01:06:29;64.00;58.39;68.45;;
73206;Laerm;61415;55.702;37.460;2023-03-03T01:07:00;67.48;63.48;72.09;;
73206;Laerm;61415;55.702;37.460;2023-03-03T01:07:31;65.37;61.95;69.44;;
73206;Laerm;61415;55.702;37.460;2023-03-03T01:08:02;62.69;58.70;67.63;;
73206;Laerm;61415;55.702;37.460;2023-03-03T01:08:33;63.25;60.23;66.63;;
73206;Laerm;61415;55.702;37.460;2023-03-03T01:09:03;60.96;57.38;65.41;;
73206;Laerm;61415;55.702;37.460;2023-03-03T01:09:34;59.31;55.43;65.17;;
73206;Laerm;61415;55.702;37.460;2023-03-03T01:10:05;60.18;56.47;64.55;;
73206;Laerm;61415;55.702;37.460;2023-03-03T01:10:38;61.61;58.52;66.90;;
73206;Laerm;61415;55.702;37.460;2023-03-03T01:11:12;66.44;58.53;72.54;;
73206;Laerm;61415;55.702;37.460;2023-03-03T01:11:43;64.17;60.26;70.57;;
73206;Laerm;61415;55.702;37.460;2023-03-03T01:12:14;64.44;59.50;71.50;;
73206;Laerm;61415;55.702;37.460;2023-03-03T01:12:45;63.60;56.99;69.67;;
73206;Laerm;61415;55.702;37.460;2023-03-03T01:13:16;59.23;56.63;62.05;;
73206;Laerm;61415;55.702;37.460;2023-03-03T01:13:47;59.71;55.62;67.82;;
73206;Laerm;61415;55.702;37.460;2023-03-03T01:14:18;59.78;55.20;67.73;;
73206;Laerm;61415;55.702;37.460;2023-03-03T01:14:49;58.98;54.93;63.05;;
73206;Laerm;61415;55.702;37.460;2023-03-03T01:15:22;59.36;55.78;64.66;;
73206;Laerm;61415;55.702;37.460;2023-03-03T01:15:54;59.38;54.81;63.92;;
73206;Laerm;61415;55.702;37.460;2023-03-03T01:16:24;61.05;56.50;65.01;;
73206;Laerm;61415;55.702;37.460;2023-03-03T01:16:55;61.61;56.78;69.99;;
73206;Laerm;61415;55.702;37.460;2023-03-03T01:17:26;59.23;56.14;62.15;;
73206;Laerm;61415;55.702;37.460;2023-03-03T01:17:57;59.20;54.94;64.10;;
73206;Laerm;61415;55.702;37.460;2023-03-03T01:18:28;60.15;56.11;65.36;;
73206;Laerm;61415;55.702;37.460;2023-03-03T01:18:59;60.91;55.65;65.04;;
73206;Laerm;61415;55.702;37.460;2023-03-03T01:19:30;63.44;57.10;67.48;;
73206;Laerm;61415;55.702;37.460;2023-03-03T01:20:02;60.26;56.81;62.84;;
73206;Laerm;61415;55.702;37.460;2023-03-03T01:20:33;59.26;55.75;63.05;;
73206;Laerm;61415;55.702;37.460;2023-03-03T01:21:04;60.97;55.17;71.32;;
73206;Laerm;61415;55.702;37.460;2023-03-03T01:21:35;64.21;57.19;70.74;;
73206;Laerm;61415;55.702;37.460;2023-03-03T01:22:05;64.75;58.50;70.16;;
73206;Laerm;61415;55.702;37.460;2023-03-03T01:22:36;59.35;56.21;64.02;;
73206;Laerm;61415;55.702;37.460;2023-03-03T01:23:07;58.98;54.70;63.19;;
73206;Laerm;61415;55.702;37.460;2023-03-03T01:23:38;61.10;57.42;64.38;;
73206;Laerm;61415;55.702;37.460;2023-03-03T01:24:09;61.38;58.17;64.57;;
73206;Laerm;61415;55.702;37.460;2023-03-03T01:24:40;59.83;56.33;63.13;;
73206;Laerm;61415;55.702;37.460;2023-03-03T01:25:10;59.85;56.35;63.29;;
73206;Laerm;61415;55.702;37.460;2023-03-03T01:25:41;57.98;54.37;62.30;;
73206;Laerm;61415;55.702;37.460;2023-03-03T01:26:12;61.59;55.52;69.28;;
73206;Laerm;61415;55.702;37.460;2023-03-03T01:26:43;63.48;57.22;69.27;;
73206;Laerm;61415;55.702;37.460;2023-03-03T01:27:14;62.34;58.32;67.77;;
73206;Laerm;61415;55.702;37.460;2023-03-03T01:27:45;61.03;57.78;65.34;;
73206;Laerm;61415;55.702;37.460;2023-03-03T01:28:15;62.60;58.41;67.08;;
73206;Laerm;61415;55.702;37.460;2023-03-03T01:28:46;60.08;56.22;66.36;;
73206;Laerm;61415;55.702;37.460;2023-03-03T01:29:17;62.40;56.96;66.97;;
73206;Laerm;61415;55.702;37.460;2023-03-03T01:29:48;59.77;55.99;65.92;;
73206;Laerm;61415;55.702;37.460;2023-03-03T01:30:18;60.41;56.57;64.27;;
73206;Laerm;61415;55.702;37.460;2023-03-03T01:30:49;60.35;56.60;70.52;;
73206;Laerm;61415;55.702;37.460;2023-03-03T01:31:20;60.38;55.52;65.32;;
73206;Laerm;61415;55.702;37.460;2023-03-03T01:31:51;60.67;56.15;70.02;;
73206;Laerm;61415;55.702;37.460;2023-03-03T01:32:22;59.31;55.92;63.33;;
73206;Laerm;61415;55.702;37.460;2023-03-03T01:32:53;62.83;56.66;78.76;;
73206;Laerm;61415;55.702;37.460;2023-03-03T01:33:24;62.16;55.13;68.13;;
73206;Laerm;61415;55.702;37.460;2023-03-03T01:33:55;58.31;54.77;62.05;;
73206;Laerm;61415;55.702;37.460;2023-03-03T01:34:25;59.16;55.18;62.40;;
73206;Laerm;61415;55.702;37.460;2023-03-03T01:34:56;62.10;57.46;66.77;;
73206;Laerm;61415;55.702;37.460;2023-03-03T01:35:27;64.70;58.17;68.49;;
73206;Laerm;61415;55.702;37.460;2023-03-03T01:35:59;62.98;57.63;68.62;;
73206;Laerm;61415;55.702;37.460;2023-03-03T01:36:30;62.33;57.88;66.04;;
73206;Laerm;61415;55.702;37.460;2023-03-03T01:37:00;57.78;54.57;61.95;;
73206;Laerm;61415;55.702;37.460;2023-03-03T01:37:32;60.38;53.35;67.17;;
73206;Laerm;61415;55.702;37.460;2023-03-03T01:38:03;61.91;57.66;67.37;;
73206;Laerm;61415;55.702;37.460;2023-03-03T01:38:35;60.95;56.98;64.67;;
73206;Laerm;61415;55.702;37.460;2023-03-03T01:39:06;61.71;56.61;66.38;;
73206;Laerm;61415;55.702;37.460;2023-03-03T01:39:36;61.35;57.21;65.19;;
73206;Laerm;61415;55.702;37.460;2023-03-03T01:40:11;61.23;56.60;64.86;;
73206;Laerm;61415;55.702;37.460;2023-03-03T01:40:42;62.11;57.53;65.42;;
73206;Laerm;61415;55.702;37.460;2023-03-03T01:41:13;63.81;58.08;69.09;;
73206;Laerm;61415;55.702;37.460;2023-03-03T01:41:44;61.85;55.37;70.17;;
73206;Laerm;61415;55.702;37.460;2023-03-03T01:42:14;57.90;54.91;61.82;;
73206;Laerm;61415;55.702;37.460;2023-03-03T01:42:45;59.34;55.55;63.32;;
73206;Laerm;61415;55.702;37.460;2023-03-03T01:43:16;63.42;53.45;71.15;;
73206;Laerm;61415;55.702;37.460;2023-03-03T01:43:48;57.24;53.88;62.56;;
73206;Laerm;61415;55.702;37.460;2023-03-03T01:44:24;60.07;55.70;65.34;;
73206;Laerm;61415;55.702;37.460;2023-03-03T01:46:43;58.66;54.36;63.60;;
73206;Laerm;61415;55.702;37.460;2023-03-03T01:47:19;63.78;56.06;68.71;;
73206;Laerm;61415;55.702;37.460;2023-03-03T01:48:02;64.37;58.45;69.34;;
73206;Laerm;61415;55.702;37.460;2023-03-03T01:48:38;60.99;57.90;64.15;;
73206;Laerm;61415;55.702;37.460;2023-03-03T01:49:11;57.72;54.40;61.80;;
73206;Laerm;61415;55.702;37.460;2023-03-03T01:50:36;61.83;56.04;68.39;;
73206;Laerm;61415;55.702;37.460;2023-03-03T01:51:44;59.28;54.96;63.51;;
73206;Laerm;61415;55.702;37.460;2023-03-03T01:52:30;59.37;55.81;63.70;;
73206;Laerm;61415;55.702;37.460;2023-03-03T01:53:04;59.59;55.04;63.09;;
73206;Laerm;61415;55.702;37.460;2023-03-03T01:54:10;57.82;53.81;61.49;;
73206;Laerm;61415;55.702;37.460;2023-03-03T01:54:44;61.02;53.71;67.93;;
73206;Laerm;61415;55.702;37.460;2023-03-03T01:55:24;65.40;59.90;71.11;;
73206;Laerm;61415;55.702;37.460;2023-03-03T01:55:55;58.63;54.97;63.48;;
73206;Laerm;61415;55.702;37.460;2023-03-03T01:56:26;64.66;57.69;73.07;;
73206;Laerm;61415;55.702;37.460;2023-03-03T01:56:58;64.07;58.98;69.15;;
73206;Laerm;61415;55.702;37.460;2023-03-03T01:57:32;60.90;56.38;65.54;;
73206;Laerm;61415;55.702;37.460;2023-03-03T01:58:06;60.90;56.80;67.20;;
73206;Laerm;61415;55.702;37.460;2023-03-03T01:58:45;61.54;56.56;69.94;;
73206;Laerm;61415;55.702;37.460;2023-03-03T01:59:17;62.85;56.13;70.29;;
73206;Laerm;61415;55.702;37.460;2023-03-03T01:59:49;60.32;57.00;64.65;;
73206;Laerm;61415;55.702;37.460;2023-03-03T02:00:21;63.88;57.12;70.27;;
73206;Laerm;61415;55.702;37.460;2023-03-03T02:00:54;59.23;55.28;63.43;;
73206;Laerm;61415;55.702;37.460;2023-03-03T02:01:27;63.69;58.00;70.19;;
73206;Laerm;61415;55.702;37.460;2023-03-03T02:01:58;63.96;59.41;67.83;;
73206;Laerm;61415;55.702;37.460;2023-03-03T02:02:29;61.73;56.65;67.25;;
73206;Laerm;61415;55.702;37.460;2023-03-03T02:03:01;64.07;58.24;68.26;;
73206;Laerm;61415;55.702;37.460;2023-03-03T02:03:32;66.15;62.06;70.22;;
73206;Laerm;61415;55.702;37.460;2023-03-03T02:04:03;62.45;58.28;66.32;;
73206;Laerm;61415;55.702;37.460;2023-03-03T02:04:34;64.26;59.18;68.59;;
73206;Laerm;61415;55.702;37.460;2023-03-03T02:05:05;61.66;58.21;65.44;;
73206;Laerm;61415;55.702;37.460;2023-03-03T02:05:36;62.09;58.03;68.85;;
73206;Laerm;61415;55.702;37.460;2023-03-03T02:06:12;61.87;57.08;67.40;;
73206;Laerm;61415;55.702;37.460;2023-03-03T02:06:45;62.86;56.52;66.81;;
73206;Laerm;61415;55.702;37.460;2023-03-03T02:07:17;60.59;56.88;64.18;;
73206;Laerm;61415;55.702;37.460;2023-03-03T02:07:49;61.44;57.49;64.75;;
73206;Laerm;61415;55.702;37.460;2023-03-03T02:08:21;62.69;58.06;68.87;;
73206;Laerm;61415;55.702;37.460;2023-03-03T02:10:10;61.54;57.62;65.05;;
73206;Laerm;61415;55.702;37.460;2023-03-03T02:10:42;60.00;56.63;63.92;;
73206;Laerm;61415;55.702;37.460;2023-03-03T02:11:14;63.51;60.04;66.93;;
73206;Laerm;61415;55.702;37.460;2023-03-03T02:11:45;62.69;58.09;67.66;;
73206;Laerm;61415;55.702;37.460;2023-03-03T02:12:19;62.08;56.22;66.04;;
73206;Laerm;61415;55.702;37.460;2023-03-03T02:12:52;61.11;57.06;64.66;;
73206;Laerm;61415;55.702;37.460;2023-03-03T02:13:23;61.62;58.35;64.65;;
73206;Laerm;61415;55.702;37.460;2023-03-03T02:13:53;61.75;56.66;66.72;;
73206;Laerm;61415;55.702;37.460;2023-03-03T02:14:24;64.46;59.59;77.21;;
73206;Laerm;61415;55.702;37.460;2023-03-03T02:14:55;62.01;57.46;66.63;;
73206;Laerm;61415;55.702;37.460;2023-03-03T02:15:57;61.09;56.86;67.01;;
73206;Laerm;61415;55.702;37.460;2023-03-03T02:16:28;64.79;60.58;70.51;;
73206;Laerm;61415;55.702;37.460;2023-03-03T02:16:59;63.60;60.88;66.42;;
73206;Laerm;61415;55.702;37.460;2023-03-03T02:17:30;63.86;61.18;66.81;;
73206;Laerm;61415;55.702;37.460;2023-03-03T02:18:03;61.26;57.57;64.85;;
73206;Laerm;61415;55.702;37.460;2023-03-03T02:18:34;61.25;56.77;64.38;;
73206;Laerm;61415;55.702;37.460;2023-03-03T02:19:05;64.21;60.79;68.01;;
73206;Laerm;61415;55.702;37.460;2023-03-03T02:19:48;61.75;57.52;67.61;;
73206;Laerm;61415;55.702;37.460;2023-03-03T02:20:32;59.50;55.19;63.69;;
73206;Laerm;61415;55.702;37.460;2023-03-03T02:21:41;63.10;58.09;67.02;;
73206;Laerm;61415;55.702;37.460;2023-03-03T02:22:14;64.72;59.24;69.81;;
73206;Laerm;61415;55.702;37.460;2023-03-03T02:22:51;62.24;58.04;65.34;;
73206;Laerm;61415;55.702;37.460;2023-03-03T02:23:26;61.06;56.91;65.69;;
73206;Laerm;61415;55.702;37.460;2023-03-03T02:24:12;62.33;57.95;67.32;;
73206;Laerm;61415;55.702;37.460;2023-03-03T02:24:54;60.29;55.71;66.11;;
73206;Laerm;61415;55.702;37.460;2023-03-03T02:25:40;60.08;56.25;65.93;;
73206;Laerm;61415;55.702;37.460;2023-03-03T02:26:13;61.06;56.53;65.28;;
73206;Laerm;61415;55.702;37.460;2023-03-03T02:26:44;62.50;56.62;67.54;;
73206;Laerm;61415;55.702;37.460;2023-03-03T02:27:15;59.68;56.44;65.52;;
73206;Laerm;61415;55.702;37.460;2023-03-03T02:27:46;60.82;57.44;63.88;;
73206;Laerm;61415;55.702;37.460;2023-03-03T02:28:17;62.73;59.43;70.97;;
73206;Laerm;61415;55.702;37.460;2023-03-03T02:28:48;65.99;59.75;72.93;;
73206;Laerm;61415;55.702;37.460;2023-03-03T02:29:19;64.58;58.63;69.43;;
73206;Laerm;61415;55.702;37.460;2023-03-03T02:29:50;62.52;57.91;66.45;;
73206;Laerm;61415;55.702;37.460;2023-03-03T02:30:22;61.75;57.51;65.90;;
73206;Laerm;61415;55.702;37.460;2023-03-03T02:30:54;60.61;57.14;64.81;;
73206;Laerm;61415;55.702;37.460;2023-03-03T02:31:26;60.50;57.02;64.18;;
73206;Laerm;61415;55.702;37.460;2023-03-03T02:31:57;61.36;57.28;64.77;;
73206;Laerm;61415;55.702;37.460;2023-03-03T02:32:27;61.42;57.11;64.80;;
73206;Laerm;61415;55.702;37.460;2023-03-03T02:32:58;58.95;55.35;62.36;;
73206;Laerm;61415;55.702;37.460;2023-03-03T02:33:29;59.85;55.53;63.65;;
73206;Laerm;61415;55.702;37.460;2023-03-03T02:34:00;61.48;57.65;66.35;;
73206;Laerm;61415;55.702;37.460;2023-03-03T02:34:30;62.21;57.40;68.28;;
73206;Laerm;61415;55.702;37.460;2023-03-03T02:35:18;65.00;59.04;68.96;;
73206;Laerm;61415;55.702;37.460;2023-03-03T02:35:52;62.35;58.56;68.54;;
73206;Laerm;61415;55.702;37.460;2023-03-03T02:36:25;61.26;57.16;65.55;;
73206;Laerm;61415;55.702;37.460;2023-03-03T02:36:56;60.07;56.78;64.17;;
73206;Laerm;61415;55.702;37.460;2023-03-03T02:37:27;61.54;58.18;64.81;;
73206;Laerm;61415;55.702;37.460;2023-03-03T02:39:06;61.80;57.50;65.55;;
73206;Laerm;61415;55.702;37.460;2023-03-03T02:39:38;62.98;58.78;67.89;;
73206;Laerm;61415;55.702;37.460;2023-03-03T02:40:09;67.99;63.12;72.08;;
73206;Laerm;61415;55.702;37.460;2023-03-03T02:40:44;64.57;61.13;67.12;;
73206;Laerm;61415;55.702;37.460;2023-03-03T02:42:06;62.56;57.22;66.44;;
73206;Laerm;61415;55.702;37.460;2023-03-03T02:42:38;63.63;57.72;67.82;;
73206;Laerm;61415;55.702;37.460;2023-03-03T02:43:09;63.62;60.18;66.66;;
73206;Laerm;61415;55.702;37.460;2023-03-03T02:43:44;62.48;58.64;66.77;;
73206;Laerm;61415;55.702;37.460;2023-03-03T02:44:17;64.64;60.78;68.02;;
73206;Laerm;61415;55.702;37.460;2023-03-03T02:44:48;62.36;58.03;65.81;;
73206;Laerm;61415;55.702;37.460;2023-03-03T02:45:19;63.98;60.17;67.94;;
73206;Laerm;61415;55.702;37.460;2023-03-03T02:45:50;66.73;62.60;70.41;;
73206;Laerm;61415;55.702;37.460;2023-03-03T02:46:21;62.25;56.46;67.31;;
73206;Laerm;61415;55.702;37.460;2023-03-03T02:46:52;63.90;59.33;68.60;;
73206;Laerm;61415;55.702;37.460;2023-03-03T02:47:23;64.62;60.52;67.79;;
73206;Laerm;61415;55.702;37.460;2023-03-03T02:47:54;67.98;61.24;73.50;;
73206;Laerm;61415;55.702;37.460;2023-03-03T02:48:25;67.78;62.23;71.04;;
73206;Laerm;61415;55.702;37.460;2023-03-03T02:48:56;63.45;59.55;68.16;;
73206;Laerm;61415;55.702;37.460;2023-03-03T02:49:28;63.14;59.50;68.62;;
73206;Laerm;61415;55.702;37.460;2023-03-03T02:50:01;63.20;59.32;68.11;;
73206;Laerm;61415;55.702;37.460;2023-03-03T02:50:32;64.04;59.36;69.96;;
73206;Laerm;61415;55.702;37.460;2023-03-03T02:51:03;65.73;61.40;69.26;;
73206;Laerm;61415;55.702;37.460;2023-03-03T02:51:34;65.74;60.98;69.91;;
73206;Laerm;61415;55.702;37.460;2023-03-03T02:52:06;66.56;63.14;70.20;;
73206;Laerm;61415;55.702;37.460;2023-03-03T02:52:39;63.15;58.59;67.08;;
73206;Laerm;61415;55.702;37.460;2023-03-03T02:53:10;62.45;58.65;67.24;;
73206;Laerm;61415;55.702;37.460;2023-03-03T02:53:40;62.47;59.07;66.08;;
73206;Laerm;61415;55.702;37.460;2023-03-03T02:54:11;67.04;63.61;70.30;;
73206;Laerm;61415;55.702;37.460;2023-03-03T02:54:42;68.59;64.40;71.16;;
73206;Laerm;61415;55.702;37.460;2023-03-03T02:55:13;68.35;64.42;71.28;;
73206;Laerm;61415;55.702;37.460;2023-03-03T02:55:44;66.30;61.08;70.01;;
73206;Laerm;61415;55.702;37.460;2023-03-03T02:56:15;66.63;60.14;69.89;;
73206;Laerm;61415;55.702;37.460;2023-03-03T02:56:46;65.39;58.77;69.83;;
73206;Laerm;61415;55.702;37.460;2023-03-03T02:57:16;62.32;59.19;68.07;;
73206;Laerm;61415;55.702;37.460;2023-03-03T02:57:47;60.92;57.61;64.29;;
73206;Laerm;61415;55.702;37.460;2023-03-03T02:58:18;65.13;59.63;69.40;;
73206;Laerm;61415;55.702;37.460;2023-03-03T02:58:49;65.72;61.48;69.07;;
73206;Laerm;61415;55.702;37.460;2023-03-03T02:59:20;64.19;61.35;67.28;;
73206;Laerm;61415;55.702;37.460;2023-03-03T02:59:51;64.27;59.53;68.02;;
73206;Laerm;61415;55.702;37.460;2023-03-03T03:00:21;64.61;59.38;71.13;;
73206;Laerm;61415;55.702;37.460;2023-03-03T03:00:52;66.32;61.81;70.08;;
73206;Laerm;61415;55.702;37.460;2023-03-03T03:01:24;68.85;65.05;74.11;;
73206;Laerm;61415;55.702;37.460;2023-03-03T03:01:55;66.26;62.58;71.86;;
73206;Laerm;61415;55.702;37.460;2023-03-03T03:02:26;63.56;59.38;69.29;;
73206;Laerm;61415;55.702;37.460;2023-03-03T03:02:57;66.18;62.72;69.52;;
73206;Laerm;61415;55.702;37.460;2023-03-03T03:03:28;68.53;63.55;74.27;;
73206;Laerm;61415;55.702;37.460;2023-03-03T03:03:59;69.14;64.87;72.96;;
73206;Laerm;61415;55.702;37.460;2023-03-03T03:04:30;68.49;63.39;71.55;;
73206;Laerm;61415;55.702;37.460;2023-03-03T03:05:00;68.47;63.83;72.86;;
73206;Laerm;61415;55.702;37.460;2023-03-03T03:05:31;69.51;64.32;73.04;;
73206;Laerm;61415;55.702;37.460;2023-03-03T03:06:02;67.54;60.26;71.42;;
73206;Laerm;61415;55.702;37.460;2023-03-03T03:06:38;66.28;61.33;71.03;;
73206;Laerm;61415;55.702;37.460;2023-03-03T03:07:10;65.05;58.12;69.53;;
73206;Laerm;61415;55.702;37.460;2023-03-03T03:07:41;64.08;57.42;70.04;;
73206;Laerm;61415;55.702;37.460;2023-03-03T03:08:12;67.23;60.61;72.12;;
73206;Laerm;61415;55.702;37.460;2023-03-03T03:08:43;67.32;63.90;71.15;;
73206;Laerm;61415;55.702;37.460;2023-03-03T03:09:14;64.14;59.62;68.79;;
73206;Laerm;61415;55.702;37.460;2023-03-03T03:09:45;68.47;62.45;71.82;;
73206;Laerm;61415;55.702;37.460;2023-03-03T03:10:17;67.63;63.98;70.02;;
73206;Laerm;61415;55.702;37.460;2023-03-03T03:10:48;67.16;62.14;70.26;;
73206;Laerm;61415;55.702;37.460;2023-03-03T03:11:19;66.33;61.37;69.54;;
73206;Laerm;61415;55.702;37.460;2023-03-03T03:12:13;64.89;59.38;69.51;;
73206;Laerm;61415;55.702;37.460;2023-03-03T03:12:54;65.55;61.83;68.46;;
73206;Laerm;61415;55.702;37.460;2023-03-03T03:13:25;66.33;60.90;71.05;;
73206;Laerm;61415;55.702;37.460;2023-03-03T03:13:56;65.29;59.15;69.44;;
73206;Laerm;61415;55.702;37.460;2023-03-03T03:14:28;67.36;64.02;70.39;;
73206;Laerm;61415;55.702;37.460;2023-03-03T03:15:00;68.10;64.68;72.22;;